sensor_id;sensor_type;location;lat;lon;timestamp;pressure;altitude;pressure_sealevel;temperature;humidity
22743;BME280;11538;48.884;8.696;2023-04-06T00:01:14;99003.63;;;3.02;64.82
22743;BME280;11538;48.884;8.696;2023-04-06T00:03:41;99002.75;;;3.14;64.27
22743;BME280;11538;48.884;8.696;2023-04-06T00:06:09;99009.88;;;3.08;64.48
22743;BME280;11538;48.884;8.696;2023-04-06T00:08:36;99008.50;;;2.88;65.44
22743;BME280;11538;48.884;8.696;2023-04-06T00:11:03;98991.38;;;2.89;65.25
22743;BME280;11538;48.884;8.696;2023-04-06T00:13:29;99000.88;;;2.80;65.56
22743;BME280;11538;48.884;8.696;2023-04-06T00:15:56;98998.03;;;2.87;65.54
22743;BME280;11538;48.884;8.696;2023-04-06T00:18:23;98996.00;;;2.94;65.17
22743;BME280;11538;48.884;8.696;2023-04-06T00:20:50;98992.91;;;3.02;64.84
22743;BME280;11538;48.884;8.696;2023-04-06T00:23:18;98990.81;;;3.04;64.94
22743;BME280;11538;48.884;8.696;2023-04-06T00:25:44;98995.09;;;3.05;65.15
22743;BME280;11538;48.884;8.696;2023-04-06T00:28:11;98988.19;;;3.10;65.01
22743;BME280;11538;48.884;8.696;2023-04-06T00:30:40;98992.44;;;2.88;65.75
22743;BME280;11538;48.884;8.696;2023-04-06T00:33:07;98985.44;;;2.87;66.22
22743;BME280;11538;48.884;8.696;2023-04-06T00:35:34;98983.50;;;2.83;66.12
22743;BME280;11538;48.884;8.696;2023-04-06T00:38:01;98987.97;;;2.77;66.35
22743;BME280;11538;48.884;8.696;2023-04-06T00:40:28;98979.78;;;2.84;66.33
22743;BME280;11538;48.884;8.696;2023-04-06T00:42:55;98972.63;;;2.89;65.92
22743;BME280;11538;48.884;8.696;2023-04-06T00:45:22;98970.34;;;2.81;66.10
22743;BME280;11538;48.884;8.696;2023-04-06T00:47:49;98969.38;;;2.70;66.00
22743;BME280;11538;48.884;8.696;2023-04-06T00:50:17;98968.00;;;2.68;66.38
22743;BME280;11538;48.884;8.696;2023-04-06T00:52:44;98970.81;;;2.61;66.77
22743;BME280;11538;48.884;8.696;2023-04-06T00:55:11;98971.56;;;2.73;66.58
22743;BME280;11538;48.884;8.696;2023-04-06T00:57:38;98966.31;;;2.78;66.36
22743;BME280;11538;48.884;8.696;2023-04-06T01:00:06;98959.25;;;2.72;66.45
22743;BME280;11538;48.884;8.696;2023-04-06T01:02:33;98957.53;;;2.66;66.48
22743;BME280;11538;48.884;8.696;2023-04-06T01:05:01;98967.66;;;2.64;66.41
22743;BME280;11538;48.884;8.696;2023-04-06T01:07:29;98959.28;;;2.43;67.03
22743;BME280;11538;48.884;8.696;2023-04-06T01:09:58;98963.97;;;2.36;67.35
22743;BME280;11538;48.884;8.696;2023-04-06T01:12:25;98961.16;;;2.43;67.35
22743;BME280;11538;48.884;8.696;2023-04-06T01:14:52;98957.25;;;2.51;66.99
22743;BME280;11538;48.884;8.696;2023-04-06T01:17:19;98954.19;;;2.42;67.64
22743;BME280;11538;48.884;8.696;2023-04-06T01:19:46;98956.19;;;2.34;68.12
22743;BME280;11538;48.884;8.696;2023-04-06T01:22:16;98962.28;;;2.47;67.81
22743;BME280;11538;48.884;8.696;2023-04-06T01:24:44;98968.53;;;2.53;67.50
22743;BME280;11538;48.884;8.696;2023-04-06T01:27:11;98954.00;;;2.48;67.80
22743;BME280;11538;48.884;8.696;2023-04-06T01:29:39;98956.78;;;2.37;68.30
22743;BME280;11538;48.884;8.696;2023-04-06T01:32:09;98948.00;;;2.41;68.47
22743;BME280;11538;48.884;8.696;2023-04-06T01:34:36;98957.00;;;2.35;68.50
22743;BME280;11538;48.884;8.696;2023-04-06T01:37:03;98953.00;;;2.21;69.26
22743;BME280;11538;48.884;8.696;2023-04-06T01:39:30;98945.44;;;2.17;69.46
22743;BME280;11538;48.884;8.696;2023-04-06T01:41:57;98944.97;;;2.21;69.58
22743;BME280;11538;48.884;8.696;2023-04-06T01:44:24;98943.53;;;2.30;69.65
22743;BME280;11538;48.884;8.696;2023-04-06T01:46:51;98935.09;;;2.38;68.79
22743;BME280;11538;48.884;8.696;2023-04-06T01:49:18;98944.34;;;2.30;68.49
22743;BME280;11538;48.884;8.696;2023-04-06T01:51:45;98936.72;;;2.22;68.55
22743;BME280;11538;48.884;8.696;2023-04-06T01:54:12;98946.28;;;2.18;68.75
22743;BME280;11538;48.884;8.696;2023-04-06T01:56:39;98934.59;;;2.24;68.48
22743;BME280;11538;48.884;8.696;2023-04-06T01:59:07;98935.31;;;2.19;69.11
22743;BME280;11538;48.884;8.696;2023-04-06T02:01:48;98939.13;;;2.24;69.43
22743;BME280;11538;48.884;8.696;2023-04-06T02:04:15;98936.72;;;2.22;69.49
22743;BME280;11538;48.884;8.696;2023-04-06T02:06:42;98941.31;;;2.27;69.62
22743;BME280;11538;48.884;8.696;2023-04-06T02:09:09;98942.78;;;2.17;69.87
22743;BME280;11538;48.884;8.696;2023-04-06T02:11:36;98945.94;;;2.14;69.88
22743;BME280;11538;48.884;8.696;2023-04-06T02:14:03;98947.41;;;2.22;69.99
22743;BME280;11538;48.884;8.696;2023-04-06T02:16:30;98942.19;;;2.15;70.05
22743;BME280;11538;48.884;8.696;2023-04-06T02:18:57;98936.38;;;2.18;70.05
22743;BME280;11538;48.884;8.696;2023-04-06T02:21:24;98944.22;;;2.08;70.93
22743;BME280;11538;48.884;8.696;2023-04-06T02:23:51;98944.59;;;2.00;72.13
22743;BME280;11538;48.884;8.696;2023-04-06T02:26:18;98950.44;;;1.97;72.35
22743;BME280;11538;48.884;8.696;2023-04-06T02:28:44;98947.06;;;2.01;71.83
22743;BME280;11538;48.884;8.696;2023-04-06T02:31:11;98948.19;;;2.06;71.94
22743;BME280;11538;48.884;8.696;2023-04-06T02:33:38;98947.72;;;2.09;71.71
22743;BME280;11538;48.884;8.696;2023-04-06T02:36:06;98947.84;;;2.02;71.90
22743;BME280;11538;48.884;8.696;2023-04-06T02:38:33;98944.59;;;2.00;71.89
22743;BME280;11538;48.884;8.696;2023-04-06T02:40:59;98944.97;;;1.92;71.93
22743;BME280;11538;48.884;8.696;2023-04-06T02:43:26;98942.34;;;1.80;72.56
22743;BME280;11538;48.884;8.696;2023-04-06T02:45:53;98936.41;;;1.78;72.82
22743;BME280;11538;48.884;8.696;2023-04-06T02:48:20;98932.31;;;1.87;72.85
22743;BME280;11538;48.884;8.696;2023-04-06T02:50:47;98931.13;;;1.95;72.24
22743;BME280;11538;48.884;8.696;2023-04-06T02:53:14;98932.78;;;1.84;71.79
22743;BME280;11538;48.884;8.696;2023-04-06T02:55:41;98932.84;;;1.72;71.79
22743;BME280;11538;48.884;8.696;2023-04-06T02:58:08;98931.59;;;1.63;72.54
22743;BME280;11538;48.884;8.696;2023-04-06T03:00:34;98925.78;;;1.66;72.31
22743;BME280;11538;48.884;8.696;2023-04-06T03:03:02;98926.44;;;1.73;72.15
22743;BME280;11538;48.884;8.696;2023-04-06T03:05:29;98928.53;;;1.71;72.26
22743;BME280;11538;48.884;8.696;2023-04-06T03:07:57;98925.88;;;1.71;72.34
22743;BME280;11538;48.884;8.696;2023-04-06T03:10:24;98918.91;;;1.70;72.56
22743;BME280;11538;48.884;8.696;2023-04-06T03:12:51;98927.03;;;1.63;73.27
22743;BME280;11538;48.884;8.696;2023-04-06T03:15:18;98927.50;;;1.72;73.27
22743;BME280;11538;48.884;8.696;2023-04-06T03:17:45;98925.63;;;1.72;73.05
22743;BME280;11538;48.884;8.696;2023-04-06T03:20:12;98920.31;;;1.60;74.05
22743;BME280;11538;48.884;8.696;2023-04-06T03:22:39;98918.03;;;1.52;74.89
22743;BME280;11538;48.884;8.696;2023-04-06T03:25:06;98923.00;;;1.60;74.25
22743;BME280;11538;48.884;8.696;2023-04-06T03:27:33;98913.34;;;1.59;74.23
22743;BME280;11538;48.884;8.696;2023-04-06T03:30:00;98920.22;;;1.55;74.63
22743;BME280;11538;48.884;8.696;2023-04-06T03:32:27;98924.72;;;1.67;74.25
22743;BME280;11538;48.884;8.696;2023-04-06T03:34:54;98926.44;;;1.73;74.17
22743;BME280;11538;48.884;8.696;2023-04-06T03:37:21;98928.38;;;1.78;74.22
22743;BME280;11538;48.884;8.696;2023-04-06T03:39:48;98932.22;;;1.82;73.80
22743;BME280;11538;48.884;8.696;2023-04-06T03:42:14;98927.59;;;1.77;73.66
22743;BME280;11538;48.884;8.696;2023-04-06T03:44:41;98929.50;;;1.65;74.26
22743;BME280;11538;48.884;8.696;2023-04-06T03:47:08;98927.41;;;1.55;74.67
22743;BME280;11538;48.884;8.696;2023-04-06T03:49:35;98936.69;;;1.64;74.67
22743;BME280;11538;48.884;8.696;2023-04-06T03:52:04;98934.94;;;1.70;74.17
22743;BME280;11538;48.884;8.696;2023-04-06T03:54:32;98938.50;;;1.75;74.14
22743;BME280;11538;48.884;8.696;2023-04-06T03:56:58;98934.56;;;1.78;73.86
22743;BME280;11538;48.884;8.696;2023-04-06T03:59:26;98939.09;;;1.78;74.07
22743;BME280;11538;48.884;8.696;2023-04-06T04:01:54;98938.28;;;1.77;74.04
22743;BME280;11538;48.884;8.696;2023-04-06T04:04:21;98941.34;;;1.69;73.64
22743;BME280;11538;48.884;8.696;2023-04-06T04:06:48;98935.78;;;1.58;74.30
22743;BME280;11538;48.884;8.696;2023-04-06T04:09:15;98950.69;;;1.42;74.89
22743;BME280;11538;48.884;8.696;2023-04-06T04:11:42;98937.56;;;1.41;74.58
22743;BME280;11538;48.884;8.696;2023-04-06T04:14:09;98941.50;;;1.50;73.83
22743;BME280;11538;48.884;8.696;2023-04-06T04:16:36;98941.03;;;1.53;74.35
22743;BME280;11538;48.884;8.696;2023-04-06T04:19:03;98948.09;;;1.59;73.29
22743;BME280;11538;48.884;8.696;2023-04-06T04:21:31;98949.47;;;1.62;73.49
22743;BME280;11538;48.884;8.696;2023-04-06T04:23:58;98949.00;;;1.65;73.80
22743;BME280;11538;48.884;8.696;2023-04-06T04:26:25;98954.13;;;1.67;74.00
22743;BME280;11538;48.884;8.696;2023-04-06T04:28:52;98954.03;;;1.62;74.25
22743;BME280;11538;48.884;8.696;2023-04-06T04:31:19;98948.22;;;1.65;74.14
22743;BME280;11538;48.884;8.696;2023-04-06T04:33:49;98940.50;;;1.68;74.04
22743;BME280;11538;48.884;8.696;2023-04-06T04:36:16;98951.56;;;1.72;73.71
22743;BME280;11538;48.884;8.696;2023-04-06T04:38:43;98946.59;;;1.64;74.04
22743;BME280;11538;48.884;8.696;2023-04-06T04:41:10;98954.13;;;1.67;74.16
22743;BME280;11538;48.884;8.696;2023-04-06T04:43:38;98948.22;;;1.53;74.40
22743;BME280;11538;48.884;8.696;2023-04-06T04:46:05;98951.16;;;1.51;74.93
22743;BME280;11538;48.884;8.696;2023-04-06T04:48:33;98947.19;;;1.54;74.93
22743;BME280;11538;48.884;8.696;2023-04-06T04:51:00;98956.34;;;1.58;74.73
22743;BME280;11538;48.884;8.696;2023-04-06T04:53:27;98959.19;;;1.51;74.70
22743;BME280;11538;48.884;8.696;2023-04-06T04:55:54;98955.25;;;1.42;74.81
22743;BME280;11538;48.884;8.696;2023-04-06T04:58:21;98965.31;;;1.52;74.65
22743;BME280;11538;48.884;8.696;2023-04-06T05:00:48;98962.75;;;1.57;74.42
22743;BME280;11538;48.884;8.696;2023-04-06T05:03:26;98961.28;;;1.49;74.74
22743;BME280;11538;48.884;8.696;2023-04-06T05:05:53;98962.44;;;1.53;74.46
22743;BME280;11538;48.884;8.696;2023-04-06T05:08:20;98962.66;;;1.52;74.78
22743;BME280;11538;48.884;8.696;2023-04-06T05:10:48;98964.72;;;1.62;74.10
22743;BME280;11538;48.884;8.696;2023-04-06T05:13:15;98963.69;;;1.63;73.96
22743;BME280;11538;48.884;8.696;2023-04-06T05:15:42;98967.03;;;1.70;73.73
22743;BME280;11538;48.884;8.696;2023-04-06T05:18:09;98965.69;;;1.55;73.94
22743;BME280;11538;48.884;8.696;2023-04-06T05:20:39;98971.59;;;1.57;74.00
22743;BME280;11538;48.884;8.696;2023-04-06T05:23:07;98969.41;;;1.54;73.20
22743;BME280;11538;48.884;8.696;2023-04-06T05:25:34;98974.53;;;1.44;74.27
22743;BME280;11538;48.884;8.696;2023-04-06T05:28:01;98967.19;;;1.51;73.87
22743;BME280;11538;48.884;8.696;2023-04-06T05:30:28;98968.69;;;1.59;73.63
22743;BME280;11538;48.884;8.696;2023-04-06T05:32:55;98957.41;;;1.57;73.67
22743;BME280;11538;48.884;8.696;2023-04-06T05:35:22;98974.84;;;1.59;73.37
22743;BME280;11538;48.884;8.696;2023-04-06T05:37:49;98962.72;;;1.69;73.09
22743;BME280;11538;48.884;8.696;2023-04-06T05:40:16;98975.16;;;1.75;73.18
22743;BME280;11538;48.884;8.696;2023-04-06T05:42:43;98981.56;;;1.74;73.50
22743;BME280;11538;48.884;8.696;2023-04-06T05:45:11;98975.72;;;1.77;73.33
22743;BME280;11538;48.884;8.696;2023-04-06T05:47:43;98981.44;;;1.69;73.44
22743;BME280;11538;48.884;8.696;2023-04-06T05:50:13;98974.47;;;1.68;73.71
22743;BME280;11538;48.884;8.696;2023-04-06T05:52:40;98982.59;;;1.73;73.90
22743;BME280;11538;48.884;8.696;2023-04-06T05:55:11;98985.38;;;1.78;73.92
22743;BME280;11538;48.884;8.696;2023-04-06T05:57:38;98980.13;;;1.83;73.33
22743;BME280;11538;48.884;8.696;2023-04-06T06:00:06;98983.84;;;1.82;73.74
22743;BME280;11538;48.884;8.696;2023-04-06T06:02:39;98984.19;;;1.86;73.36
22743;BME280;11538;48.884;8.696;2023-04-06T06:05:07;98982.66;;;1.90;73.68
22743;BME280;11538;48.884;8.696;2023-04-06T06:07:34;98989.78;;;1.84;74.19
22743;BME280;11538;48.884;8.696;2023-04-06T06:10:01;98992.09;;;1.93;73.77
22743;BME280;11538;48.884;8.696;2023-04-06T06:12:28;98987.69;;;1.86;73.26
22743;BME280;11538;48.884;8.696;2023-04-06T06:14:55;98990.31;;;1.98;73.00
22743;BME280;11538;48.884;8.696;2023-04-06T06:17:22;98989.38;;;2.04;72.66
22743;BME280;11538;48.884;8.696;2023-04-06T06:19:49;98987.38;;;2.12;72.33
22743;BME280;11538;48.884;8.696;2023-04-06T06:22:16;98987.94;;;2.14;72.48
22743;BME280;11538;48.884;8.696;2023-04-06T06:24:43;98993.31;;;2.14;72.70
22743;BME280;11538;48.884;8.696;2023-04-06T06:27:10;98992.00;;;2.16;72.48
22743;BME280;11538;48.884;8.696;2023-04-06T06:29:37;98996.28;;;2.17;72.40
22743;BME280;11538;48.884;8.696;2023-04-06T06:32:04;98996.38;;;2.23;72.55
22743;BME280;11538;48.884;8.696;2023-04-06T06:34:31;98992.53;;;2.30;71.99
22743;BME280;11538;48.884;8.696;2023-04-06T06:36:58;98998.28;;;2.39;71.63
22743;BME280;11538;48.884;8.696;2023-04-06T06:39:26;98997.59;;;2.44;71.62
22743;BME280;11538;48.884;8.696;2023-04-06T06:41:53;98996.84;;;2.48;71.45
22743;BME280;11538;48.884;8.696;2023-04-06T06:44:23;98995.00;;;2.49;71.09
22743;BME280;11538;48.884;8.696;2023-04-06T06:46:50;98997.03;;;2.59;70.53
22743;BME280;11538;48.884;8.696;2023-04-06T06:49:17;98997.44;;;2.68;70.72
22743;BME280;11538;48.884;8.696;2023-04-06T06:51:44;99003.16;;;2.71;70.42
22743;BME280;11538;48.884;8.696;2023-04-06T06:54:12;98996.91;;;2.83;70.26
22743;BME280;11538;48.884;8.696;2023-04-06T06:56:39;99000.22;;;2.90;69.24
22743;BME280;11538;48.884;8.696;2023-04-06T06:59:06;98995.84;;;3.01;69.20
22743;BME280;11538;48.884;8.696;2023-04-06T07:01:33;99003.22;;;3.11;68.87
22743;BME280;11538;48.884;8.696;2023-04-06T07:04:01;98992.00;;;3.14;68.48
22743;BME280;11538;48.884;8.696;2023-04-06T07:06:28;98992.09;;;3.19;68.60
22743;BME280;11538;48.884;8.696;2023-04-06T07:08:55;98986.88;;;3.29;68.09
22743;BME280;11538;48.884;8.696;2023-04-06T07:11:22;98994.50;;;3.38;68.42
22743;BME280;11538;48.884;8.696;2023-04-06T07:13:49;98987.72;;;3.52;68.01
22743;BME280;11538;48.884;8.696;2023-04-06T07:16:16;98988.97;;;3.66;67.80
22743;BME280;11538;48.884;8.696;2023-04-06T07:18:44;98988.03;;;3.78;67.71
22743;BME280;11538;48.884;8.696;2023-04-06T07:21:10;98991.91;;;3.87;67.28
22743;BME280;11538;48.884;8.696;2023-04-06T07:23:37;98987.16;;;3.94;66.75
22743;BME280;11538;48.884;8.696;2023-04-06T07:26:05;98983.56;;;4.06;67.00
22743;BME280;11538;48.884;8.696;2023-04-06T07:28:32;98989.09;;;4.21;66.26
22743;BME280;11538;48.884;8.696;2023-04-06T07:30:59;98987.28;;;4.32;65.47
22743;BME280;11538;48.884;8.696;2023-04-06T07:33:26;98986.09;;;4.45;65.36
22743;BME280;11538;48.884;8.696;2023-04-06T07:35:56;98983.75;;;4.54;65.46
22743;BME280;11538;48.884;8.696;2023-04-06T07:38:25;98983.28;;;4.62;64.73
22743;BME280;11538;48.884;8.696;2023-04-06T07:40:52;98981.50;;;4.73;64.08
22743;BME280;11538;48.884;8.696;2023-04-06T07:43:19;98982.16;;;4.91;63.89
22743;BME280;11538;48.884;8.696;2023-04-06T07:45:47;98982.88;;;5.13;63.42
22743;BME280;11538;48.884;8.696;2023-04-06T07:48:14;98986.81;;;5.38;62.30
22743;BME280;11538;48.884;8.696;2023-04-06T07:50:41;98983.41;;;5.59;60.96
22743;BME280;11538;48.884;8.696;2023-04-06T07:53:09;98992.38;;;5.80;60.13
22743;BME280;11538;48.884;8.696;2023-04-06T07:55:36;98980.59;;;5.91;59.07
22743;BME280;11538;48.884;8.696;2023-04-06T07:58:04;98982.28;;;6.13;58.67
22743;BME280;11538;48.884;8.696;2023-04-06T08:00:31;98978.03;;;6.38;58.01
22743;BME280;11538;48.884;8.696;2023-04-06T08:02:58;98982.94;;;6.67;57.26
22743;BME280;11538;48.884;8.696;2023-04-06T08:05:28;98974.56;;;6.99;56.53
22743;BME280;11538;48.884;8.696;2023-04-06T08:07:55;98980.44;;;7.27;55.42
22743;BME280;11538;48.884;8.696;2023-04-06T08:10:22;98989.84;;;7.51;54.29
22743;BME280;11538;48.884;8.696;2023-04-06T08:12:49;98978.19;;;7.71;53.38
22743;BME280;11538;48.884;8.696;2023-04-06T08:15:16;98972.97;;;7.90;52.53
22743;BME280;11538;48.884;8.696;2023-04-06T08:17:44;98976.16;;;8.08;51.77
22743;BME280;11538;48.884;8.696;2023-04-06T08:20:12;98965.78;;;8.25;50.04
22743;BME280;11538;48.884;8.696;2023-04-06T08:22:39;98971.31;;;8.49;49.00
22743;BME280;11538;48.884;8.696;2023-04-06T08:25:06;98969.53;;;8.74;47.47
22743;BME280;11538;48.884;8.696;2023-04-06T08:27:33;98956.63;;;8.96;46.51
22743;BME280;11538;48.884;8.696;2023-04-06T08:30:00;98965.59;;;9.20;46.62
22743;BME280;11538;48.884;8.696;2023-04-06T08:32:27;98962.34;;;9.48;46.21
22743;BME280;11538;48.884;8.696;2023-04-06T08:34:55;98969.94;;;9.70;45.63
22743;BME280;11538;48.884;8.696;2023-04-06T08:37:23;98958.78;;;9.96;45.72
22743;BME280;11538;48.884;8.696;2023-04-06T08:39:50;98962.41;;;10.30;44.98
22743;BME280;11538;48.884;8.696;2023-04-06T08:42:25;98963.22;;;10.49;43.27
22743;BME280;11538;48.884;8.696;2023-04-06T08:44:54;98957.28;;;10.66;43.06
22743;BME280;11538;48.884;8.696;2023-04-06T08:47:21;98956.94;;;10.87;43.26
22743;BME280;11538;48.884;8.696;2023-04-06T08:49:52;98956.59;;;11.08;42.94
22743;BME280;11538;48.884;8.696;2023-04-06T08:52:20;98953.50;;;11.29;40.88
22743;BME280;11538;48.884;8.696;2023-04-06T08:54:47;98965.69;;;11.45;39.86
22743;BME280;11538;48.884;8.696;2023-04-06T08:57:16;98959.34;;;11.64;39.08
22743;BME280;11538;48.884;8.696;2023-04-06T08:59:44;98958.13;;;11.84;38.58
22743;BME280;11538;48.884;8.696;2023-04-06T09:02:18;98956.50;;;12.11;38.88
22743;BME280;11538;48.884;8.696;2023-04-06T09:04:52;98956.16;;;12.26;38.42
22743;BME280;11538;48.884;8.696;2023-04-06T09:07:20;98952.28;;;12.41;37.38
22743;BME280;11538;48.884;8.696;2023-04-06T09:09:50;98957.28;;;12.48;35.85
22743;BME280;11538;48.884;8.696;2023-04-06T09:12:27;98947.97;;;12.63;34.38
22743;BME280;11538;48.884;8.696;2023-04-06T09:14:55;98956.38;;;12.76;36.17
22743;BME280;11538;48.884;8.696;2023-04-06T09:17:28;98949.41;;;12.61;35.57
22743;BME280;11538;48.884;8.696;2023-04-06T09:19:57;98947.81;;;12.91;40.62
22743;BME280;11538;48.884;8.696;2023-04-06T09:22:24;98948.53;;;13.06;38.39
22743;BME280;11538;48.884;8.696;2023-04-06T09:24:53;98942.03;;;13.15;34.59
22743;BME280;11538;48.884;8.696;2023-04-06T09:27:32;98938.94;;;13.40;38.08
22743;BME280;11538;48.884;8.696;2023-04-06T09:30:08;98940.66;;;13.58;35.40
22743;BME280;11538;48.884;8.696;2023-04-06T09:32:51;98938.25;;;13.66;34.56
22743;BME280;11538;48.884;8.696;2023-04-06T09:35:20;98934.84;;;13.51;34.44
22743;BME280;11538;48.884;8.696;2023-04-06T09:37:51;98935.53;;;13.74;34.42
22743;BME280;11538;48.884;8.696;2023-04-06T09:40:19;98935.13;;;13.99;38.83
22743;BME280;11538;48.884;8.696;2023-04-06T09:42:48;98938.34;;;14.18;36.03
22743;BME280;11538;48.884;8.696;2023-04-06T09:45:17;98940.13;;;14.32;35.52
22743;BME280;11538;48.884;8.696;2023-04-06T09:47:45;98938.81;;;14.38;33.53
22743;BME280;11538;48.884;8.696;2023-04-06T09:50:14;98933.38;;;14.38;32.52
22743;BME280;11538;48.884;8.696;2023-04-06T09:52:49;98940.59;;;14.43;32.98
22743;BME280;11538;48.884;8.696;2023-04-06T09:55:39;98931.13;;;14.40;34.54
22743;BME280;11538;48.884;8.696;2023-04-06T09:58:15;98936.59;;;14.58;31.73
22743;BME280;11538;48.884;8.696;2023-04-06T10:03:52;98928.72;;;14.83;33.81
22743;BME280;11538;48.884;8.696;2023-04-06T10:06:23;98928.41;;;14.75;33.13
22743;BME280;11538;48.884;8.696;2023-04-06T10:08:56;98929.66;;;14.87;32.15
22743;BME280;11538;48.884;8.696;2023-04-06T10:11:23;98936.34;;;15.07;34.04
22743;BME280;11538;48.884;8.696;2023-04-06T10:13:50;98924.75;;;15.19;30.61
22743;BME280;11538;48.884;8.696;2023-04-06T10:16:17;98925.91;;;15.48;35.27
22743;BME280;11538;48.884;8.696;2023-04-06T10:18:50;98928.75;;;15.60;33.88
22743;BME280;11538;48.884;8.696;2023-04-06T10:21:23;98929.13;;;15.80;31.17
22743;BME280;11538;48.884;8.696;2023-04-06T10:23:59;98917.75;;;15.99;33.89
22743;BME280;11538;48.884;8.696;2023-04-06T10:26:26;98921.78;;;16.02;30.83
22743;BME280;11538;48.884;8.696;2023-04-06T10:28:54;98921.31;;;16.00;28.75
22743;BME280;11538;48.884;8.696;2023-04-06T10:31:26;98920.56;;;15.90;29.33
22743;BME280;11538;48.884;8.696;2023-04-06T10:34:00;98923.53;;;15.76;28.23
22743;BME280;11538;48.884;8.696;2023-04-06T10:36:34;98922.09;;;15.70;28.86
22743;BME280;11538;48.884;8.696;2023-04-06T10:39:05;98916.91;;;16.07;28.66
22743;BME280;11538;48.884;8.696;2023-04-06T10:41:44;98924.25;;;16.16;28.10
22743;BME280;11538;48.884;8.696;2023-04-06T10:44:24;98915.97;;;16.25;27.59
22743;BME280;11538;48.884;8.696;2023-04-06T10:46:59;98915.53;;;16.56;27.98
22743;BME280;11538;48.884;8.696;2023-04-06T10:49:29;98911.50;;;16.41;27.66
22743;BME280;11538;48.884;8.696;2023-04-06T10:51:57;98902.19;;;16.55;27.88
22743;BME280;11538;48.884;8.696;2023-04-06T10:54:26;98899.69;;;16.95;29.81
22743;BME280;11538;48.884;8.696;2023-04-06T10:56:53;98904.03;;;16.96;28.86
22743;BME280;11538;48.884;8.696;2023-04-06T10:59:21;98903.25;;;17.08;27.16
22743;BME280;11538;48.884;8.696;2023-04-06T11:01:49;98904.22;;;17.37;28.27
22743;BME280;11538;48.884;8.696;2023-04-06T11:04:18;98901.94;;;17.27;27.59
22743;BME280;11538;48.884;8.696;2023-04-06T11:06:49;98899.66;;;17.42;29.34
22743;BME280;11538;48.884;8.696;2023-04-06T11:09:24;98901.00;;;17.73;27.80
22743;BME280;11538;48.884;8.696;2023-04-06T11:11:53;98898.81;;;17.66;25.77
22743;BME280;11538;48.884;8.696;2023-04-06T11:14:21;98895.97;;;17.75;27.76
22743;BME280;11538;48.884;8.696;2023-04-06T11:16:48;98897.75;;;17.95;28.72
22743;BME280;11538;48.884;8.696;2023-04-06T11:19:17;98895.81;;;17.83;26.12
22743;BME280;11538;48.884;8.696;2023-04-06T11:21:47;98887.06;;;17.65;25.98
22743;BME280;11538;48.884;8.696;2023-04-06T11:24:21;98877.22;;;17.64;25.17
22743;BME280;11538;48.884;8.696;2023-04-06T11:26:51;98877.75;;;17.95;25.25
22743;BME280;11538;48.884;8.696;2023-04-06T11:29:21;98872.41;;;18.27;25.13
22743;BME280;11538;48.884;8.696;2023-04-06T11:31:58;98872.03;;;18.57;24.97
22743;BME280;11538;48.884;8.696;2023-04-06T11:34:25;98876.63;;;18.81;24.62
22743;BME280;11538;48.884;8.696;2023-04-06T11:37:01;98875.59;;;19.02;24.26
22743;BME280;11538;48.884;8.696;2023-04-06T11:39:29;98868.41;;;19.29;24.00
22743;BME280;11538;48.884;8.696;2023-04-06T11:42:02;98866.81;;;19.28;25.13
22743;BME280;11538;48.884;8.696;2023-04-06T11:44:42;98867.31;;;19.34;24.62
22743;BME280;11538;48.884;8.696;2023-04-06T11:47:12;98869.84;;;19.59;25.16
22743;BME280;11538;48.884;8.696;2023-04-06T11:49:42;98871.44;;;19.60;25.25
22743;BME280;11538;48.884;8.696;2023-04-06T11:52:23;98867.94;;;19.95;25.15
22743;BME280;11538;48.884;8.696;2023-04-06T11:54:53;98868.81;;;19.99;25.32
22743;BME280;11538;48.884;8.696;2023-04-06T11:57:21;98873.38;;;20.11;24.80
22743;BME280;11538;48.884;8.696;2023-04-06T11:59:52;98853.69;;;20.52;24.27
22743;BME280;11538;48.884;8.696;2023-04-06T12:02:19;98849.38;;;20.74;24.17
22743;BME280;11538;48.884;8.696;2023-04-06T12:04:46;98850.22;;;21.25;23.58
22743;BME280;11538;48.884;8.696;2023-04-06T12:07:14;98853.38;;;21.24;23.85
22743;BME280;11538;48.884;8.696;2023-04-06T12:09:42;98855.69;;;20.75;24.07
22743;BME280;11538;48.884;8.696;2023-04-06T12:12:10;98852.75;;;20.44;24.32
22743;BME280;11538;48.884;8.696;2023-04-06T12:14:37;98852.16;;;20.12;24.14
22743;BME280;11538;48.884;8.696;2023-04-06T12:17:04;98850.97;;;20.33;24.25
22743;BME280;11538;48.884;8.696;2023-04-06T12:19:31;98851.97;;;20.44;24.18
22743;BME280;11538;48.884;8.696;2023-04-06T12:21:58;98843.00;;;20.27;24.17
22743;BME280;11538;48.884;8.696;2023-04-06T12:24:25;98841.69;;;20.41;24.12
22743;BME280;11538;48.884;8.696;2023-04-06T12:26:53;98842.19;;;20.70;24.35
22743;BME280;11538;48.884;8.696;2023-04-06T12:29:35;98840.47;;;21.04;24.04
22743;BME280;11538;48.884;8.696;2023-04-06T12:32:02;98830.56;;;21.27;24.33
22743;BME280;11538;48.884;8.696;2023-04-06T12:34:29;98835.41;;;21.10;23.90
22743;BME280;11538;48.884;8.696;2023-04-06T12:36:56;98836.81;;;21.24;24.04
22743;BME280;11538;48.884;8.696;2023-04-06T12:39:23;98839.66;;;21.04;23.99
22743;BME280;11538;48.884;8.696;2023-04-06T12:41:50;98835.06;;;20.88;23.89
22743;BME280;11538;48.884;8.696;2023-04-06T12:44:17;98829.19;;;21.40;22.97
22743;BME280;11538;48.884;8.696;2023-04-06T12:46:44;98834.59;;;21.60;23.03
22743;BME280;11538;48.884;8.696;2023-04-06T12:49:12;98836.88;;;21.27;23.07
22743;BME280;11538;48.884;8.696;2023-04-06T12:51:41;98831.66;;;20.95;23.59
22743;BME280;11538;48.884;8.696;2023-04-06T12:54:08;98828.00;;;20.68;24.14
22743;BME280;11538;48.884;8.696;2023-04-06T12:56:35;98827.25;;;21.17;24.01
22743;BME280;11538;48.884;8.696;2023-04-06T12:59:03;98829.56;;;21.66;23.63
22743;BME280;11538;48.884;8.696;2023-04-06T13:01:31;98824.19;;;22.07;22.89
22743;BME280;11538;48.884;8.696;2023-04-06T13:03:58;98826.97;;;22.11;23.09
22743;BME280;11538;48.884;8.696;2023-04-06T13:06:26;98826.78;;;21.93;23.21
22743;BME280;11538;48.884;8.696;2023-04-06T13:08:56;98819.44;;;21.77;23.18
22743;BME280;11538;48.884;8.696;2023-04-06T13:11:23;98809.91;;;22.01;22.94
22743;BME280;11538;48.884;8.696;2023-04-06T13:13:54;98819.81;;;22.44;22.04
22743;BME280;11538;48.884;8.696;2023-04-06T13:16:21;98827.59;;;22.31;22.14